sensor_id;sensor_type;location;lat;lon;timestamp;temperature;humidity
9885;DHT22;4981;50.966;4.842;2022-08-19T00:00:32;18.60;1.00
9885;DHT22;4981;50.966;4.842;2022-08-19T00:03:01;18.80;1.00
9885;DHT22;4981;50.966;4.842;2022-08-19T00:05:28;18.60;1.00
9885;DHT22;4981;50.966;4.842;2022-08-19T00:07:56;18.50;1.00
9885;DHT22;4981;50.966;4.842;2022-08-19T00:10:24;18.60;1.00
9885;DHT22;4981;50.966;4.842;2022-08-19T00:12:51;18.70;1.00
9885;DHT22;4981;50.966;4.842;2022-08-19T00:15:20;18.70;1.00
9885;DHT22;4981;50.966;4.842;2022-08-19T00:17:48;18.60;1.00
9885;DHT22;4981;50.966;4.842;2022-08-19T00:20:19;18.50;1.00
9885;DHT22;4981;50.966;4.842;2022-08-19T00:22:47;18.50;1.00
9885;DHT22;4981;50.966;4.842;2022-08-19T00:25:14;18.60;1.00
9885;DHT22;4981;50.966;4.842;2022-08-19T00:27:41;18.80;1.00
9885;DHT22;4981;50.966;4.842;2022-08-19T00:30:09;18.90;1.00
9885;DHT22;4981;50.966;4.842;2022-08-19T00:32:38;18.80;1.00
9885;DHT22;4981;50.966;4.842;2022-08-19T00:35:06;18.90;1.00
9885;DHT22;4981;50.966;4.842;2022-08-19T00:37:36;18.90;1.00
9885;DHT22;4981;50.966;4.842;2022-08-19T00:40:05;19.00;1.00
9885;DHT22;4981;50.966;4.842;2022-08-19T00:42:33;18.90;1.00
9885;DHT22;4981;50.966;4.842;2022-08-19T00:45:01;18.90;1.00
9885;DHT22;4981;50.966;4.842;2022-08-19T00:47:28;18.90;1.00
9885;DHT22;4981;50.966;4.842;2022-08-19T00:49:57;18.80;1.00
9885;DHT22;4981;50.966;4.842;2022-08-19T00:52:28;18.70;1.00
9885;DHT22;4981;50.966;4.842;2022-08-19T00:54:58;18.70;1.00
9885;DHT22;4981;50.966;4.842;2022-08-19T00:57:30;18.70;1.00
9885;DHT22;4981;50.966;4.842;2022-08-19T00:59:58;18.70;1.00
9885;DHT22;4981;50.966;4.842;2022-08-19T01:02:27;18.60;1.00
9885;DHT22;4981;50.966;4.842;2022-08-19T01:04:55;18.60;1.00
9885;DHT22;4981;50.966;4.842;2022-08-19T01:07:23;18.50;1.00
9885;DHT22;4981;50.966;4.842;2022-08-19T01:09:50;18.50;1.00
9885;DHT22;4981;50.966;4.842;2022-08-19T01:12:19;18.50;1.00
9885;DHT22;4981;50.966;4.842;2022-08-19T01:14:47;18.50;1.00
9885;DHT22;4981;50.966;4.842;2022-08-19T01:17:16;18.50;1.00
9885;DHT22;4981;50.966;4.842;2022-08-19T01:19:45;18.60;1.00
9885;DHT22;4981;50.966;4.842;2022-08-19T01:22:19;18.60;1.00
9885;DHT22;4981;50.966;4.842;2022-08-19T01:24:50;18.50;1.00
9885;DHT22;4981;50.966;4.842;2022-08-19T01:27:18;18.50;1.00
9885;DHT22;4981;50.966;4.842;2022-08-19T01:29:45;18.40;1.00
9885;DHT22;4981;50.966;4.842;2022-08-19T01:32:15;18.50;1.00
9885;DHT22;4981;50.966;4.842;2022-08-19T01:34:45;18.40;1.00
9885;DHT22;4981;50.966;4.842;2022-08-19T01:37:13;18.30;1.00
9885;DHT22;4981;50.966;4.842;2022-08-19T01:39:42;18.30;1.00
9885;DHT22;4981;50.966;4.842;2022-08-19T01:42:11;18.30;1.00
9885;DHT22;4981;50.966;4.842;2022-08-19T01:44:39;18.30;1.00
9885;DHT22;4981;50.966;4.842;2022-08-19T01:47:07;18.20;1.00
9885;DHT22;4981;50.966;4.842;2022-08-19T01:49:35;18.20;1.00
9885;DHT22;4981;50.966;4.842;2022-08-19T01:52:04;18.20;1.00
9885;DHT22;4981;50.966;4.842;2022-08-19T01:54:32;18.30;1.00
9885;DHT22;4981;50.966;4.842;2022-08-19T01:57:02;18.20;1.00
9885;DHT22;4981;50.966;4.842;2022-08-19T01:59:33;18.20;1.00
9885;DHT22;4981;50.966;4.842;2022-08-19T02:02:02;17.80;1.00
9885;DHT22;4981;50.966;4.842;2022-08-19T02:04:31;18.30;1.00
9885;DHT22;4981;50.966;4.842;2022-08-19T02:06:58;18.10;1.00
9885;DHT22;4981;50.966;4.842;2022-08-19T02:09:25;18.10;1.00
9885;DHT22;4981;50.966;4.842;2022-08-19T02:11:53;18.10;1.00
9885;DHT22;4981;50.966;4.842;2022-08-19T02:14:20;18.10;1.00
9885;DHT22;4981;50.966;4.842;2022-08-19T02:16:49;18.00;1.00
9885;DHT22;4981;50.966;4.842;2022-08-19T02:19:16;18.00;1.00
9885;DHT22;4981;50.966;4.842;2022-08-19T02:21:43;18.00;1.00
9885;DHT22;4981;50.966;4.842;2022-08-19T02:24:11;18.00;1.00
9885;DHT22;4981;50.966;4.842;2022-08-19T02:26:39;17.90;1.00
9885;DHT22;4981;50.966;4.842;2022-08-19T02:29:06;17.90;1.00
9885;DHT22;4981;50.966;4.842;2022-08-19T02:31:33;17.90;1.00
9885;DHT22;4981;50.966;4.842;2022-08-19T02:34:02;17.90;1.00
9885;DHT22;4981;50.966;4.842;2022-08-19T02:36:30;17.80;1.00
9885;DHT22;4981;50.966;4.842;2022-08-19T02:38:57;17.70;1.00
9885;DHT22;4981;50.966;4.842;2022-08-19T02:41:25;17.70;1.00
9885;DHT22;4981;50.966;4.842;2022-08-19T02:43:53;17.60;1.00
9885;DHT22;4981;50.966;4.842;2022-08-19T02:46:22;17.70;1.00
9885;DHT22;4981;50.966;4.842;2022-08-19T02:48:52;17.60;1.00
9885;DHT22;4981;50.966;4.842;2022-08-19T02:51:23;17.60;1.00
9885;DHT22;4981;50.966;4.842;2022-08-19T02:53:51;17.50;1.00
9885;DHT22;4981;50.966;4.842;2022-08-19T02:56:20;17.50;1.00
9885;DHT22;4981;50.966;4.842;2022-08-19T02:58:50;17.50;1.00
9885;DHT22;4981;50.966;4.842;2022-08-19T03:01:22;17.50;1.00
9885;DHT22;4981;50.966;4.842;2022-08-19T03:03:50;17.50;1.00
9885;DHT22;4981;50.966;4.842;2022-08-19T03:06:17;17.40;1.00
9885;DHT22;4981;50.966;4.842;2022-08-19T03:08:47;17.40;1.00
9885;DHT22;4981;50.966;4.842;2022-08-19T03:11:16;17.40;1.00
9885;DHT22;4981;50.966;4.842;2022-08-19T03:13:43;17.40;1.00
9885;DHT22;4981;50.966;4.842;2022-08-19T03:16:11;17.30;1.00
9885;DHT22;4981;50.966;4.842;2022-08-19T03:18:39;17.30;1.00
9885;DHT22;4981;50.966;4.842;2022-08-19T03:21:06;17.50;1.00
9885;DHT22;4981;50.966;4.842;2022-08-19T03:23:34;17.40;1.00
9885;DHT22;4981;50.966;4.842;2022-08-19T03:26:05;17.40;1.00
9885;DHT22;4981;50.966;4.842;2022-08-19T03:28:32;17.40;1.00
9885;DHT22;4981;50.966;4.842;2022-08-19T03:31:03;17.40;1.00
9885;DHT22;4981;50.966;4.842;2022-08-19T03:33:31;17.30;1.00
9885;DHT22;4981;50.966;4.842;2022-08-19T03:36:04;17.30;1.00
9885;DHT22;4981;50.966;4.842;2022-08-19T03:38:32;17.30;1.00
9885;DHT22;4981;50.966;4.842;2022-08-19T03:41:05;17.20;1.00
9885;DHT22;4981;50.966;4.842;2022-08-19T03:43:34;17.20;1.00
9885;DHT22;4981;50.966;4.842;2022-08-19T03:46:04;17.20;1.00
9885;DHT22;4981;50.966;4.842;2022-08-19T03:48:32;16.80;1.00
9885;DHT22;4981;50.966;4.842;2022-08-19T03:51:00;17.20;1.00
9885;DHT22;4981;50.966;4.842;2022-08-19T03:53:29;17.20;1.00
9885;DHT22;4981;50.966;4.842;2022-08-19T03:55:57;17.10;1.00
9885;DHT22;4981;50.966;4.842;2022-08-19T03:58:27;17.20;1.00
9885;DHT22;4981;50.966;4.842;2022-08-19T04:00:55;17.00;1.00
9885;DHT22;4981;50.966;4.842;2022-08-19T04:03:23;17.10;1.00
9885;DHT22;4981;50.966;4.842;2022-08-19T04:05:52;17.20;1.00
9885;DHT22;4981;50.966;4.842;2022-08-19T04:08:20;17.00;1.00
9885;DHT22;4981;50.966;4.842;2022-08-19T04:10:48;17.00;1.00
9885;DHT22;4981;50.966;4.842;2022-08-19T04:13:16;17.10;1.00
9885;DHT22;4981;50.966;4.842;2022-08-19T04:15:46;17.20;1.00
9885;DHT22;4981;50.966;4.842;2022-08-19T04:18:14;17.10;1.00
9885;DHT22;4981;50.966;4.842;2022-08-19T04:20:42;17.10;1.00
9885;DHT22;4981;50.966;4.842;2022-08-19T04:23:10;17.20;1.00
9885;DHT22;4981;50.966;4.842;2022-08-19T04:25:40;17.10;1.00
9885;DHT22;4981;50.966;4.842;2022-08-19T04:28:09;17.10;1.00
9885;DHT22;4981;50.966;4.842;2022-08-19T04:30:38;17.10;1.00
9885;DHT22;4981;50.966;4.842;2022-08-19T04:33:08;17.00;1.00
9885;DHT22;4981;50.966;4.842;2022-08-19T04:35:36;17.00;1.00
9885;DHT22;4981;50.966;4.842;2022-08-19T04:38:05;17.00;1.00
9885;DHT22;4981;50.966;4.842;2022-08-19T04:40:32;16.90;1.00
9885;DHT22;4981;50.966;4.842;2022-08-19T04:43:17;17.00;1.00
9885;DHT22;4981;50.966;4.842;2022-08-19T04:45:44;17.00;1.00
9885;DHT22;4981;50.966;4.842;2022-08-19T04:48:13;17.00;1.00
9885;DHT22;4981;50.966;4.842;2022-08-19T04:50:42;16.90;1.00
9885;DHT22;4981;50.966;4.842;2022-08-19T04:53:10;16.90;1.00
9885;DHT22;4981;50.966;4.842;2022-08-19T04:55:41;16.80;1.00
9885;DHT22;4981;50.966;4.842;2022-08-19T04:58:08;16.80;1.00
9885;DHT22;4981;50.966;4.842;2022-08-19T05:00:38;16.80;1.00
9885;DHT22;4981;50.966;4.842;2022-08-19T05:03:06;16.80;1.00
9885;DHT22;4981;50.966;4.842;2022-08-19T05:05:39;16.90;1.00
9885;DHT22;4981;50.966;4.842;2022-08-19T05:08:06;16.90;1.00
9885;DHT22;4981;50.966;4.842;2022-08-19T05:10:35;16.90;1.00
9885;DHT22;4981;50.966;4.842;2022-08-19T05:13:02;16.90;1.00
9885;DHT22;4981;50.966;4.842;2022-08-19T05:15:30;16.80;1.00
9885;DHT22;4981;50.966;4.842;2022-08-19T05:17:57;16.80;1.00
9885;DHT22;4981;50.966;4.842;2022-08-19T05:20:43;16.80;1.00
9885;DHT22;4981;50.966;4.842;2022-08-19T05:23:28;16.80;1.00
9885;DHT22;4981;50.966;4.842;2022-08-19T05:25:55;16.80;1.00
9885;DHT22;4981;50.966;4.842;2022-08-19T05:28:23;16.80;1.00
9885;DHT22;4981;50.966;4.842;2022-08-19T05:30:50;16.80;1.00
9885;DHT22;4981;50.966;4.842;2022-08-19T05:33:18;16.80;1.00
9885;DHT22;4981;50.966;4.842;2022-08-19T05:35:47;16.90;1.00
9885;DHT22;4981;50.966;4.842;2022-08-19T05:38:15;17.10;1.00
9885;DHT22;4981;50.966;4.842;2022-08-19T05:40:43;17.00;1.00
9885;DHT22;4981;50.966;4.842;2022-08-19T05:43:15;16.90;1.00
9885;DHT22;4981;50.966;4.842;2022-08-19T05:45:43;17.00;1.00
9885;DHT22;4981;50.966;4.842;2022-08-19T05:48:11;17.10;1.00
9885;DHT22;4981;50.966;4.842;2022-08-19T05:50:40;17.10;1.00
9885;DHT22;4981;50.966;4.842;2022-08-19T05:53:09;17.00;1.00
9885;DHT22;4981;50.966;4.842;2022-08-19T05:55:37;16.90;1.00
9885;DHT22;4981;50.966;4.842;2022-08-19T05:58:05;16.80;1.00
9885;DHT22;4981;50.966;4.842;2022-08-19T06:00:33;16.90;1.00
9885;DHT22;4981;50.966;4.842;2022-08-19T06:03:01;16.90;1.00
9885;DHT22;4981;50.966;4.842;2022-08-19T06:05:29;16.90;1.00
9885;DHT22;4981;50.966;4.842;2022-08-19T06:07:57;17.00;1.00
9885;DHT22;4981;50.966;4.842;2022-08-19T06:10:25;17.10;1.00
9885;DHT22;4981;50.966;4.842;2022-08-19T06:12:53;17.20;1.00
9885;DHT22;4981;50.966;4.842;2022-08-19T06:15:21;17.20;1.00
9885;DHT22;4981;50.966;4.842;2022-08-19T06:17:51;17.30;1.00
9885;DHT22;4981;50.966;4.842;2022-08-19T06:20:18;17.30;1.00
9885;DHT22;4981;50.966;4.842;2022-08-19T06:22:47;17.30;1.00
9885;DHT22;4981;50.966;4.842;2022-08-19T06:25:15;17.40;1.00
9885;DHT22;4981;50.966;4.842;2022-08-19T06:27:45;17.40;1.00
9885;DHT22;4981;50.966;4.842;2022-08-19T06:30:13;17.40;1.00
9885;DHT22;4981;50.966;4.842;2022-08-19T06:32:40;17.50;1.00
9885;DHT22;4981;50.966;4.842;2022-08-19T06:35:08;17.70;1.00
9885;DHT22;4981;50.966;4.842;2022-08-19T06:37:36;17.80;1.00
9885;DHT22;4981;50.966;4.842;2022-08-19T06:40:05;17.80;1.00
9885;DHT22;4981;50.966;4.842;2022-08-19T06:42:33;17.90;1.00
9885;DHT22;4981;50.966;4.842;2022-08-19T06:45:02;18.00;1.00
9885;DHT22;4981;50.966;4.842;2022-08-19T06:47:30;18.00;1.00
9885;DHT22;4981;50.966;4.842;2022-08-19T06:49:59;17.70;1.00
9885;DHT22;4981;50.966;4.842;2022-08-19T06:52:27;18.00;1.00
9885;DHT22;4981;50.966;4.842;2022-08-19T06:54:55;18.20;1.00
9885;DHT22;4981;50.966;4.842;2022-08-19T06:57:23;18.20;1.00
9885;DHT22;4981;50.966;4.842;2022-08-19T06:59:51;18.30;1.00
9885;DHT22;4981;50.966;4.842;2022-08-19T07:04:47;18.30;1.00
9885;DHT22;4981;50.966;4.842;2022-08-19T07:07:16;18.40;1.00
9885;DHT22;4981;50.966;4.842;2022-08-19T07:09:44;18.50;1.00
9885;DHT22;4981;50.966;4.842;2022-08-19T07:12:14;18.50;1.00
9885;DHT22;4981;50.966;4.842;2022-08-19T07:14:43;18.70;1.00
9885;DHT22;4981;50.966;4.842;2022-08-19T07:17:11;18.70;1.00
9885;DHT22;4981;50.966;4.842;2022-08-19T07:19:40;18.60;1.00
9885;DHT22;4981;50.966;4.842;2022-08-19T07:22:09;18.60;1.00
9885;DHT22;4981;50.966;4.842;2022-08-19T07:24:37;18.60;1.00
9885;DHT22;4981;50.966;4.842;2022-08-19T07:27:06;18.60;1.00
9885;DHT22;4981;50.966;4.842;2022-08-19T07:29:36;18.80;1.00
9885;DHT22;4981;50.966;4.842;2022-08-19T07:32:06;18.80;1.00
9885;DHT22;4981;50.966;4.842;2022-08-19T07:34:34;18.90;1.00
9885;DHT22;4981;50.966;4.842;2022-08-19T07:37:04;19.10;1.00
9885;DHT22;4981;50.966;4.842;2022-08-19T07:39:34;18.90;1.00
9885;DHT22;4981;50.966;4.842;2022-08-19T07:42:05;19.10;1.00
9885;DHT22;4981;50.966;4.842;2022-08-19T07:44:33;19.20;1.00
9885;DHT22;4981;50.966;4.842;2022-08-19T07:47:01;19.20;1.00
9885;DHT22;4981;50.966;4.842;2022-08-19T07:49:29;19.40;1.00
9885;DHT22;4981;50.966;4.842;2022-08-19T07:51:58;19.40;1.00
9885;DHT22;4981;50.966;4.842;2022-08-19T07:54:28;19.20;1.00
9885;DHT22;4981;50.966;4.842;2022-08-19T07:56:57;19.20;1.00
9885;DHT22;4981;50.966;4.842;2022-08-19T07:59:25;19.60;1.00
9885;DHT22;4981;50.966;4.842;2022-08-19T08:01:54;19.50;1.00
9885;DHT22;4981;50.966;4.842;2022-08-19T08:04:21;19.40;1.00
9885;DHT22;4981;50.966;4.842;2022-08-19T08:07:07;19.60;1.00
9885;DHT22;4981;50.966;4.842;2022-08-19T08:09:52;19.70;1.00
9885;DHT22;4981;50.966;4.842;2022-08-19T08:12:23;20.10;1.00
9885;DHT22;4981;50.966;4.842;2022-08-19T08:14:55;20.40;1.00
9885;DHT22;4981;50.966;4.842;2022-08-19T08:17:25;20.20;1.00
9885;DHT22;4981;50.966;4.842;2022-08-19T08:19:53;20.00;1.00
9885;DHT22;4981;50.966;4.842;2022-08-19T08:22:22;20.30;1.00
9885;DHT22;4981;50.966;4.842;2022-08-19T08:25:04;20.20;1.00
9885;DHT22;4981;50.966;4.842;2022-08-19T08:27:35;20.30;1.00
9885;DHT22;4981;50.966;4.842;2022-08-19T08:30:05;20.30;1.00
9885;DHT22;4981;50.966;4.842;2022-08-19T08:32:34;20.40;1.00
9885;DHT22;4981;50.966;4.842;2022-08-19T08:35:03;20.80;1.00
9885;DHT22;4981;50.966;4.842;2022-08-19T08:37:30;20.90;1.00
9885;DHT22;4981;50.966;4.842;2022-08-19T08:39:57;20.90;1.00
9885;DHT22;4981;50.966;4.842;2022-08-19T08:42:28;21.10;1.00
9885;DHT22;4981;50.966;4.842;2022-08-19T08:45:03;20.70;1.00
9885;DHT22;4981;50.966;4.842;2022-08-19T08:47:34;20.60;1.00
9885;DHT22;4981;50.966;4.842;2022-08-19T08:50:06;20.60;1.00
9885;DHT22;4981;50.966;4.842;2022-08-19T08:52:37;21.00;1.00
9885;DHT22;4981;50.966;4.842;2022-08-19T08:55:11;21.10;1.00
9885;DHT22;4981;50.966;4.842;2022-08-19T08:57:44;21.00;1.00
9885;DHT22;4981;50.966;4.842;2022-08-19T09:00:22;21.00;1.00
9885;DHT22;4981;50.966;4.842;2022-08-19T09:02:50;21.40;1.00
9885;DHT22;4981;50.966;4.842;2022-08-19T09:05:19;21.20;1.00
9885;DHT22;4981;50.966;4.842;2022-08-19T09:08:03;21.40;1.00
9885;DHT22;4981;50.966;4.842;2022-08-19T09:10:38;21.60;1.00
9885;DHT22;4981;50.966;4.842;2022-08-19T09:13:14;21.50;1.00
9885;DHT22;4981;50.966;4.842;2022-08-19T09:15:48;21.20;1.00
9885;DHT22;4981;50.966;4.842;2022-08-19T09:18:18;21.20;1.00
9885;DHT22;4981;50.966;4.842;2022-08-19T09:20:45;21.20;1.00
9885;DHT22;4981;50.966;4.842;2022-08-19T09:23:13;21.30;1.00
9885;DHT22;4981;50.966;4.842;2022-08-19T09:25:41;21.60;1.00
9885;DHT22;4981;50.966;4.842;2022-08-19T09:28:08;21.50;1.00
9885;DHT22;4981;50.966;4.842;2022-08-19T09:30:40;21.40;1.00
9885;DHT22;4981;50.966;4.842;2022-08-19T09:33:08;21.40;1.00
9885;DHT22;4981;50.966;4.842;2022-08-19T09:35:36;21.70;1.00
9885;DHT22;4981;50.966;4.842;2022-08-19T09:38:03;22.00;1.00
9885;DHT22;4981;50.966;4.842;2022-08-19T09:40:30;22.10;1.00
9885;DHT22;4981;50.966;4.842;2022-08-19T09:42:58;22.00;1.00
9885;DHT22;4981;50.966;4.842;2022-08-19T09:45:28;21.70;1.00
9885;DHT22;4981;50.966;4.842;2022-08-19T09:47:56;22.00;1.00
9885;DHT22;4981;50.966;4.842;2022-08-19T09:50:25;22.00;1.00
9885;DHT22;4981;50.966;4.842;2022-08-19T09:52:52;22.10;1.00
9885;DHT22;4981;50.966;4.842;2022-08-19T09:55:20;22.30;1.00
9885;DHT22;4981;50.966;4.842;2022-08-19T09:57:47;22.30;1.00
9885;DHT22;4981;50.966;4.842;2022-08-19T10:00:15;22.30;1.00
9885;DHT22;4981;50.966;4.842;2022-08-19T10:02:42;22.20;1.00
9885;DHT22;4981;50.966;4.842;2022-08-19T10:05:09;22.10;1.00
9885;DHT22;4981;50.966;4.842;2022-08-19T10:07:54;22.40;1.00
9885;DHT22;4981;50.966;4.842;2022-08-19T10:10:22;22.50;1.00
9885;DHT22;4981;50.966;4.842;2022-08-19T10:12:49;22.80;1.00
9885;DHT22;4981;50.966;4.842;2022-08-19T10:15:16;22.90;1.00
9885;DHT22;4981;50.966;4.842;2022-08-19T10:17:46;22.70;1.00
9885;DHT22;4981;50.966;4.842;2022-08-19T10:20:14;23.00;1.00
9885;DHT22;4981;50.966;4.842;2022-08-19T10:22:41;22.80;1.00
9885;DHT22;4981;50.966;4.842;2022-08-19T10:25:11;22.60;1.00
9885;DHT22;4981;50.966;4.842;2022-08-19T10:27:40;22.70;1.00
9885;DHT22;4981;50.966;4.842;2022-08-19T10:30:09;22.80;1.00
9885;DHT22;4981;50.966;4.842;2022-08-19T10:32:36;22.70;1.00
9885;DHT22;4981;50.966;4.842;2022-08-19T10:35:04;22.70;1.00
9885;DHT22;4981;50.966;4.842;2022-08-19T10:37:34;22.90;1.00
9885;DHT22;4981;50.966;4.842;2022-08-19T10:40:03;23.10;1.00
9885;DHT22;4981;50.966;4.842;2022-08-19T10:42:33;23.00;1.00
9885;DHT22;4981;50.966;4.842;2022-08-19T10:45:00;22.90;1.00
9885;DHT22;4981;50.966;4.842;2022-08-19T10:47:27;22.90;1.00
9885;DHT22;4981;50.966;4.842;2022-08-19T10:49:55;23.10;1.00
9885;DHT22;4981;50.966;4.842;2022-08-19T10:52:41;23.00;1.00
9885;DHT22;4981;50.966;4.842;2022-08-19T10:55:08;22.60;1.00
9885;DHT22;4981;50.966;4.842;2022-08-19T10:57:54;22.70;1.00
9885;DHT22;4981;50.966;4.842;2022-08-19T11:00:23;23.00;1.00
9885;DHT22;4981;50.966;4.842;2022-08-19T11:02:51;22.90;1.00
9885;DHT22;4981;50.966;4.842;2022-08-19T11:05:20;22.90;1.00
9885;DHT22;4981;50.966;4.842;2022-08-19T11:07:47;23.30;1.00
9885;DHT22;4981;50.966;4.842;2022-08-19T11:10:17;23.50;1.00
9885;DHT22;4981;50.966;4.842;2022-08-19T11:12:45;23.90;1.00
9885;DHT22;4981;50.966;4.842;2022-08-19T11:15:15;23.80;1.00
9885;DHT22;4981;50.966;4.842;2022-08-19T11:17:43;24.00;1.00
9885;DHT22;4981;50.966;4.842;2022-08-19T11:20:11;23.90;1.00
9885;DHT22;4981;50.966;4.842;2022-08-19T11:22:39;23.90;1.00
9885;DHT22;4981;50.966;4.842;2022-08-19T11:25:08;23.90;1.00
9885;DHT22;4981;50.966;4.842;2022-08-19T11:27:38;23.70;1.00
9885;DHT22;4981;50.966;4.842;2022-08-19T11:30:09;24.00;1.00
9885;DHT22;4981;50.966;4.842;2022-08-19T11:32:38;23.80;1.00
9885;DHT22;4981;50.966;4.842;2022-08-19T11:35:06;24.20;1.00
9885;DHT22;4981;50.966;4.842;2022-08-19T11:37:33;24.10;1.00
9885;DHT22;4981;50.966;4.842;2022-08-19T11:40:04;24.10;1.00
9885;DHT22;4981;50.966;4.842;2022-08-19T11:42:32;24.00;1.00
9885;DHT22;4981;50.966;4.842;2022-08-19T11:45:16;24.10;1.00
9885;DHT22;4981;50.966;4.842;2022-08-19T11:47:45;24.10;1.00
9885;DHT22;4981;50.966;4.842;2022-08-19T11:50:13;23.90;1.00
9885;DHT22;4981;50.966;4.842;2022-08-19T11:52:40;24.10;1.00
9885;DHT22;4981;50.966;4.842;2022-08-19T11:55:10;24.20;1.00
9885;DHT22;4981;50.966;4.842;2022-08-19T11:57:38;24.70;1.00
9885;DHT22;4981;50.966;4.842;2022-08-19T12:00:07;23.80;1.00
9885;DHT22;4981;50.966;4.842;2022-08-19T12:02:36;23.60;1.00
9885;DHT22;4981;50.966;4.842;2022-08-19T12:05:06;23.70;1.00
9885;DHT22;4981;50.966;4.842;2022-08-19T12:07:34;23.50;1.00
9885;DHT22;4981;50.966;4.842;2022-08-19T12:10:02;23.00;1.00
9885;DHT22;4981;50.966;4.842;2022-08-19T12:12:29;23.50;1.00
9885;DHT22;4981;50.966;4.842;2022-08-19T12:14:57;23.40;1.00
9885;DHT22;4981;50.966;4.842;2022-08-19T12:17:25;23.00;1.00
9885;DHT22;4981;50.966;4.842;2022-08-19T12:19:52;22.90;1.00
9885;DHT22;4981;50.966;4.842;2022-08-19T12:22:21;23.10;1.00
9885;DHT22;4981;50.966;4.842;2022-08-19T12:24:49;23.10;1.00
9885;DHT22;4981;50.966;4.842;2022-08-19T12:27:18;23.00;1.00
9885;DHT22;4981;50.966;4.842;2022-08-19T12:29:50;23.10;1.00
9885;DHT22;4981;50.966;4.842;2022-08-19T12:32:17;23.30;1.00
9885;DHT22;4981;50.966;4.842;2022-08-19T12:34:44;23.50;1.00
9885;DHT22;4981;50.966;4.842;2022-08-19T12:37:12;23.20;1.00
9885;DHT22;4981;50.966;4.842;2022-08-19T12:39:42;23.50;1.00
9885;DHT22;4981;50.966;4.842;2022-08-19T12:42:10;23.80;1.00
9885;DHT22;4981;50.966;4.842;2022-08-19T12:44:38;23.60;1.00
9885;DHT22;4981;50.966;4.842;2022-08-19T12:47:07;23.70;1.00
9885;DHT22;4981;50.966;4.842;2022-08-19T12:49:35;24.00;1.00
9885;DHT22;4981;50.966;4.842;2022-08-19T12:52:05;24.10;1.00
9885;DHT22;4981;50.966;4.842;2022-08-19T12:54:33;24.50;1.00
9885;DHT22;4981;50.966;4.842;2022-08-19T12:57:05;24.60;1.00
9885;DHT22;4981;50.966;4.842;2022-08-19T12:59:33;25.00;1.00
9885;DHT22;4981;50.966;4.842;2022-08-19T13:02:02;25.10;1.00
9885;DHT22;4981;50.966;4.842;2022-08-19T13:04:30;24.80;1.00
9885;DHT22;4981;50.966;4.842;2022-08-19T13:06:58;24.80;1.00
9885;DHT22;4981;50.966;4.842;2022-08-19T13:09:25;24.90;1.00
9885;DHT22;4981;50.966;4.842;2022-08-19T13:11:53;25.20;1.00
9885;DHT22;4981;50.966;4.842;2022-08-19T13:14:21;25.60;1.00
9885;DHT22;4981;50.966;4.842;2022-08-19T13:16:48;26.00;27.50
9885;DHT22;4981;50.966;4.842;2022-08-19T13:19:16;26.20;24.60
9885;DHT22;4981;50.966;4.842;2022-08-19T13:21:49;26.00;24.10
9885;DHT22;4981;50.966;4.842;2022-08-19T13:24:16;25.90;1.00
9885;DHT22;4981;50.966;4.842;2022-08-19T13:26:43;26.60;20.60
9885;DHT22;4981;50.966;4.842;2022-08-19T13:29:11;28.10;13.30
9885;DHT22;4981;50.966;4.842;2022-08-19T13:31:57;27.80;13.10
9885;DHT22;4981;50.966;4.842;2022-08-19T13:34:42;28.40;10.20
9885;DHT22;4981;50.966;4.842;2022-08-19T13:37:12;28.00;10.30
9885;DHT22;4981;50.966;4.842;2022-08-19T13:39:40;27.20;13.60
9885;DHT22;4981;50.966;4.842;2022-08-19T13:42:07;28.50;9.70
9885;DHT22;4981;50.966;4.842;2022-08-19T13:44:34;27.60;12.30
9885;DHT22;4981;50.966;4.842;2022-08-19T13:47:05;27.10;14.90
9885;DHT22;4981;50.966;4.842;2022-08-19T13:49:34;26.80;19.00
9885;DHT22;4981;50.966;4.842;2022-08-19T13:52:03;27.30;14.40
9885;DHT22;4981;50.966;4.842;2022-08-19T13:54:30;27.00;14.20
9885;DHT22;4981;50.966;4.842;2022-08-19T13:56:58;27.40;13.00
9885;DHT22;4981;50.966;4.842;2022-08-19T13:59:25;26.30;19.90
9885;DHT22;4981;50.966;4.842;2022-08-19T14:01:52;26.00;21.10
9885;DHT22;4981;50.966;4.842;2022-08-19T14:04:21;26.20;21.60
9885;DHT22;4981;50.966;4.842;2022-08-19T14:06:48;26.50;20.10
9885;DHT22;4981;50.966;4.842;2022-08-19T14:09:15;26.50;20.00
9885;DHT22;4981;50.966;4.842;2022-08-19T14:11:42;26.10;19.90
9885;DHT22;4981;50.966;4.842;2022-08-19T14:14:12;27.00;16.50
9885;DHT22;4981;50.966;4.842;2022-08-19T14:16:39;27.40;14.00
9885;DHT22;4981;50.966;4.842;2022-08-19T14:19:06;27.10;14.10
9885;DHT22;4981;50.966;4.842;2022-08-19T14:21:35;26.60;17.50
9885;DHT22;4981;50.966;4.842;2022-08-19T14:24:03;27.30;12.40
9885;DHT22;4981;50.966;4.842;2022-08-19T14:26:30;28.40;8.60
9885;DHT22;4981;50.966;4.842;2022-08-19T14:28:57;28.80;5.10
9885;DHT22;4981;50.966;4.842;2022-08-19T14:31:25;29.60;1.60
9885;DHT22;4981;50.966;4.842;2022-08-19T14:33:52;28.40;6.50
9885;DHT22;4981;50.966;4.842;2022-08-19T14:36:19;27.40;11.80
9885;DHT22;4981;50.966;4.842;2022-08-19T14:38:48;27.00;14.30
9885;DHT22;4981;50.966;4.842;2022-08-19T14:41:17;26.20;20.10
9885;DHT22;4981;50.966;4.842;2022-08-19T14:43:46;26.70;18.40
9885;DHT22;4981;50.966;4.842;2022-08-19T14:46:14;26.60;18.60
9885;DHT22;4981;50.966;4.842;2022-08-19T14:48:42;26.90;18.40
9885;DHT22;4981;50.966;4.842;2022-08-19T14:51:10;26.60;18.30
9885;DHT22;4981;50.966;4.842;2022-08-19T14:53:38;26.60;18.80
9885;DHT22;4981;50.966;4.842;2022-08-19T14:56:11;26.80;17.40
9885;DHT22;4981;50.966;4.842;2022-08-19T14:58:39;26.90;17.20
9885;DHT22;4981;50.966;4.842;2022-08-19T15:01:08;26.70;18.10
9885;DHT22;4981;50.966;4.842;2022-08-19T15:03:36;26.80;17.80
9885;DHT22;4981;50.966;4.842;2022-08-19T15:06:05;26.40;19.00
9885;DHT22;4981;50.966;4.842;2022-08-19T15:08:34;26.20;19.50
9885;DHT22;4981;50.966;4.842;2022-08-19T15:11:03;26.50;18.10
9885;DHT22;4981;50.966;4.842;2022-08-19T15:13:36;25.50;1.00
9885;DHT22;4981;50.966;4.842;2022-08-19T15:16:05;25.60;1.00
9885;DHT22;4981;50.966;4.842;2022-08-19T15:18:32;25.90;1.00
9885;DHT22;4981;50.966;4.842;2022-08-19T15:21:01;25.90;1.00
9885;DHT22;4981;50.966;4.842;2022-08-19T15:23:28;25.10;1.00
9885;DHT22;4981;50.966;4.842;2022-08-19T15:25:56;25.10;1.00
9885;DHT22;4981;50.966;4.842;2022-08-19T15:28:24;25.00;1.00
9885;DHT22;4981;50.966;4.842;2022-08-19T15:30:53;25.30;1.00
9885;DHT22;4981;50.966;4.842;2022-08-19T15:33:20;24.80;1.00
9885;DHT22;4981;50.966;4.842;2022-08-19T15:35:48;24.60;1.00
9885;DHT22;4981;50.966;4.842;2022-08-19T15:38:17;24.20;1.00
9885;DHT22;4981;50.966;4.842;2022-08-19T15:40:47;24.40;1.00
9885;DHT22;4981;50.966;4.842;2022-08-19T15:43:15;24.80;1.00
9885;DHT22;4981;50.966;4.842;2022-08-19T15:45:44;25.30;1.00
9885;DHT22;4981;50.966;4.842;2022-08-19T15:48:12;24.90;1.00
9885;DHT22;4981;50.966;4.842;2022-08-19T15:50:40;24.70;1.00
9885;DHT22;4981;50.966;4.842;2022-08-19T15:53:08;24.30;1.00
9885;DHT22;4981;50.966;4.842;2022-08-19T15:55:44;24.00;1.00
9885;DHT22;4981;50.966;4.842;2022-08-19T15:58:13;24.30;1.00
9885;DHT22;4981;50.966;4.842;2022-08-19T16:01:00;24.20;1.00
9885;DHT22;4981;50.966;4.842;2022-08-19T16:03:46;24.00;1.00
9885;DHT22;4981;50.966;4.842;2022-08-19T16:06:32;24.00;1.00
9885;DHT22;4981;50.966;4.842;2022-08-19T16:09:01;24.20;1.00
9885;DHT22;4981;50.966;4.842;2022-08-19T16:11:30;24.80;1.00
9885;DHT22;4981;50.966;4.842;2022-08-19T16:14:01;24.80;1.00
9885;DHT22;4981;50.966;4.842;2022-08-19T16:16:30;24.60;1.00
9885;DHT22;4981;50.966;4.842;2022-08-19T16:19:00;24.60;1.00
9885;DHT22;4981;50.966;4.842;2022-08-19T16:21:29;24.60;1.00
9885;DHT22;4981;50.966;4.842;2022-08-19T16:23:59;25.10;1.00
9885;DHT22;4981;50.966;4.842;2022-08-19T16:26:26;25.80;1.00
9885;DHT22;4981;50.966;4.842;2022-08-19T16:28:55;26.00;26.50
9885;DHT22;4981;50.966;4.842;2022-08-19T16:31:24;25.20;1.00